createdAt,value
2023-04-16T00:01:16.436Z,14.43
2023-04-16T00:03:42.925Z,10.30
2023-04-16T00:06:12.402Z,13.18
2023-04-16T00:08:38.884Z,14.85
2023-04-16T00:11:05.788Z,18.63
2023-04-16T00:13:32.378Z,19.70
2023-04-16T00:15:59.096Z,11.00
2023-04-16T00:18:25.655Z,11.27
2023-04-16T00:20:52.129Z,16.90
2023-04-16T00:23:18.558Z,13.30
2023-04-16T00:25:45.195Z,16.08
2023-04-16T00:28:11.608Z,14.48
2023-04-16T00:30:38.189Z,16.17
2023-04-16T00:33:04.810Z,12.05
2023-04-16T00:35:31.265Z,13.77
2023-04-16T00:37:57.666Z,13.73
2023-04-16T00:40:28.569Z,12.30
2023-04-16T00:42:55.045Z,13.05
2023-04-16T00:45:21.450Z,16.90
2023-04-16T00:47:47.905Z,19.17
2023-04-16T00:50:14.427Z,12.98
2023-04-16T00:52:40.857Z,16.27
2023-04-16T00:55:08.061Z,21.17
2023-04-16T00:57:34.507Z,14.88
2023-04-16T01:00:01.018Z,17.00
2023-04-16T01:02:27.701Z,19.10
2023-04-16T01:04:55.187Z,16.55
2023-04-16T01:07:21.770Z,21.92
2023-04-16T01:09:48.154Z,14.82
2023-04-16T01:12:14.650Z,19.50
2023-04-16T01:14:41.051Z,20.23
2023-04-16T01:17:07.457Z,16.15
2023-04-16T01:19:36.325Z,9.70
2023-04-16T01:22:03.600Z,16.40
2023-04-16T01:24:30.267Z,18.58
2023-04-16T01:26:59.737Z,16.77
2023-04-16T01:29:26.714Z,27.27
2023-04-16T01:31:54.291Z,60.40
2023-04-16T01:34:20.873Z,32.72
2023-04-16T01:36:47.288Z,16.98
2023-04-16T01:39:15.656Z,53.63
2023-04-16T01:41:42.668Z,49.58
2023-04-16T01:44:09.240Z,24.20
2023-04-16T01:46:36.163Z,17.30
2023-04-16T01:49:02.903Z,16.83
2023-04-16T01:51:29.359Z,14.38
2023-04-16T01:53:56.033Z,17.98
2023-04-16T01:56:22.421Z,15.10
2023-04-16T01:58:48.943Z,25.10
2023-04-16T02:01:16.159Z,17.02
2023-04-16T02:03:43.003Z,17.10
2023-04-16T02:06:09.568Z,12.27
2023-04-16T02:08:36.152Z,13.40
2023-04-16T02:11:02.663Z,14.52
2023-04-16T02:13:29.058Z,19.30
2023-04-16T02:15:55.649Z,14.52
2023-04-16T02:18:22.072Z,15.02
2023-04-16T02:20:49.806Z,15.75
2023-04-16T02:23:16.298Z,17.38
2023-04-16T02:25:44.837Z,15.10
2023-04-16T02:28:13.413Z,15.18
2023-04-16T02:30:41.105Z,14.38
2023-04-16T02:33:10.523Z,13.15
2023-04-16T02:35:39.196Z,19.92
2023-04-16T02:38:05.798Z,17.17
2023-04-16T02:40:32.548Z,17.65
2023-04-16T02:42:59.215Z,14.35
2023-04-16T02:45:25.820Z,19.42
2023-04-16T02:47:52.470Z,14.43
2023-04-16T02:50:19.244Z,20.02
2023-04-16T02:52:45.767Z,17.80
2023-04-16T02:55:12.186Z,17.63
2023-04-16T02:57:38.719Z,15.25
2023-04-16T03:00:05.784Z,14.32
2023-04-16T03:02:32.319Z,21.50
2023-04-16T03:04:58.822Z,24.48
2023-04-16T03:07:25.850Z,20.50
2023-04-16T03:09:52.349Z,20.88
2023-04-16T03:12:18.877Z,19.67
2023-04-16T03:14:45.317Z,23.02
2023-04-16T03:17:12.102Z,22.48
2023-04-16T03:19:38.533Z,20.73
2023-04-16T03:22:05.061Z,25.05
2023-04-16T03:24:32.218Z,21.98
2023-04-16T03:26:58.994Z,24.40
2023-04-16T03:29:26.714Z,25.00
2023-04-16T03:31:53.413Z,27.75
2023-04-16T03:34:19.967Z,28.23
2023-04-16T03:36:46.448Z,32.50
2023-04-16T03:39:12.986Z,25.10
2023-04-16T03:41:39.418Z,27.58
2023-04-16T03:44:05.878Z,29.75
2023-04-16T03:46:32.354Z,24.20
2023-04-16T03:48:58.813Z,25.10
2023-04-16T03:51:26.253Z,21.45
2023-04-16T03:53:52.812Z,17.00
2023-04-16T03:56:19.196Z,39.35
2023-04-16T03:58:45.588Z,21.33
2023-04-16T04:01:12.018Z,30.10
2023-04-16T04:03:38.593Z,29.85
2023-04-16T04:06:09.195Z,18.92
2023-04-16T04:08:35.731Z,28.85
2023-04-16T04:11:02.144Z,21.60
2023-04-16T04:13:28.758Z,30.42
2023-04-16T04:15:55.279Z,28.13
2023-04-16T04:18:21.810Z,26.40
2023-04-16T04:20:48.335Z,26.13
2023-04-16T04:23:14.791Z,26.30
2023-04-16T04:25:41.207Z,35.33
2023-04-16T04:28:07.586Z,38.33
2023-04-16T04:30:35.686Z,32.08
2023-04-16T04:33:02.182Z,34.15
2023-04-16T04:35:28.694Z,30.92
2023-04-16T04:37:55.205Z,21.20
2023-04-16T04:40:21.593Z,28.05
2023-04-16T04:42:48.188Z,36.95
2023-04-16T04:45:14.723Z,30.70
2023-04-16T04:47:41.212Z,28.42
2023-04-16T04:50:08.244Z,26.45
2023-04-16T04:52:34.796Z,29.80
2023-04-16T04:55:01.303Z,33.97
2023-04-16T04:57:27.790Z,21.83
2023-04-16T04:59:54.222Z,28.83
2023-04-16T05:02:20.781Z,27.25
2023-04-16T05:04:47.330Z,27.30
2023-04-16T05:07:13.824Z,26.42
2023-04-16T05:09:40.548Z,32.80
2023-04-16T05:12:07.150Z,21.02
2023-04-16T05:14:33.632Z,29.45
2023-04-16T05:17:02.903Z,34.75
2023-04-16T05:19:29.444Z,24.67
2023-04-16T05:21:56.185Z,24.15
2023-04-16T05:24:22.794Z,20.20
2023-04-16T05:26:49.206Z,24.67
2023-04-16T05:29:15.925Z,28.55
2023-04-16T05:31:42.572Z,27.02
2023-04-16T05:34:08.961Z,27.23
2023-04-16T05:36:35.403Z,30.13
2023-04-16T05:39:01.913Z,35.20
2023-04-16T05:41:28.314Z,18.83
2023-04-16T05:43:54.703Z,27.02
2023-04-16T05:46:21.202Z,30.20
2023-04-16T05:48:47.654Z,16.73
2023-04-16T05:51:14.072Z,28.10
2023-04-16T05:53:40.955Z,27.70
2023-04-16T05:56:07.966Z,27.65
2023-04-16T05:58:34.457Z,22.05
2023-04-16T06:01:01.439Z,29.25
2023-04-16T06:03:28.065Z,26.88
2023-04-16T06:05:54.675Z,28.15
2023-04-16T06:08:21.254Z,22.55
2023-04-16T06:10:47.890Z,28.85
2023-04-16T06:13:14.543Z,31.52
2023-04-16T06:15:41.025Z,23.10
2023-04-16T06:18:07.489Z,22.27
2023-04-16T06:20:33.970Z,18.45
2023-04-16T06:23:00.615Z,22.98
2023-04-16T06:25:27.028Z,26.60
2023-04-16T06:27:53.417Z,26.65
2023-04-16T06:30:20.080Z,24.33
2023-04-16T06:32:46.630Z,27.52
2023-04-16T06:35:13.199Z,35.03
2023-04-16T06:37:39.601Z,26.75
2023-04-16T06:40:06.542Z,17.08
2023-04-16T06:42:32.968Z,33.00
2023-04-16T06:44:59.377Z,28.83
2023-04-16T06:47:25.871Z,32.05
2023-04-16T06:49:52.347Z,31.10
2023-04-16T06:52:18.928Z,27.42
2023-04-16T06:54:45.373Z,34.70
2023-04-16T06:57:11.846Z,38.85
2023-04-16T06:59:38.530Z,22.40
2023-04-16T07:02:05.052Z,34.63
2023-04-16T07:04:31.602Z,29.98
2023-04-16T07:06:58.047Z,30.27
2023-04-16T07:09:25.228Z,39.10
2023-04-16T07:11:51.631Z,26.40
2023-04-16T07:14:18.174Z,31.35
2023-04-16T07:16:44.626Z,33.78
2023-04-16T07:19:11.300Z,35.20
2023-04-16T07:21:38.039Z,27.58
2023-04-16T07:24:04.526Z,29.95
2023-04-16T07:26:31.046Z,28.45
2023-04-16T07:29:11.290Z,32.70
2023-04-16T07:31:38.582Z,31.63
2023-04-16T07:34:05.117Z,28.83
2023-04-16T07:36:31.822Z,30.38
2023-04-16T07:38:58.263Z,29.55
2023-04-16T07:41:25.094Z,31.63
2023-04-16T07:43:51.568Z,27.50
2023-04-16T07:46:18.081Z,26.77
2023-04-16T07:48:44.544Z,29.45
2023-04-16T07:51:11.027Z,25.13
2023-04-16T07:53:37.483Z,23.45
2023-04-16T07:56:03.948Z,37.38
2023-04-16T07:58:30.399Z,36.20
2023-04-16T08:00:56.870Z,31.42
2023-04-16T08:03:23.553Z,37.15
2023-04-16T08:05:50.245Z,30.85
2023-04-16T08:08:16.706Z,35.90
2023-04-16T08:10:43.129Z,36.75
2023-04-16T08:13:09.587Z,48.60
2023-04-16T08:15:36.171Z,40.72
2023-04-16T08:18:02.757Z,41.55
2023-04-16T08:20:29.223Z,46.05
2023-04-16T08:22:55.760Z,34.90
2023-04-16T08:25:24.589Z,35.38
2023-04-16T08:27:51.061Z,33.85
2023-04-16T08:30:18.727Z,44.33
2023-04-16T08:32:46.880Z,34.80
2023-04-16T08:35:15.372Z,40.13
2023-04-16T08:37:41.922Z,38.35
2023-04-16T08:40:08.969Z,41.25
2023-04-16T08:42:48.635Z,46.72
2023-04-16T08:45:17.838Z,35.47
2023-04-16T08:47:51.807Z,43.90
2023-04-16T08:50:24.056Z,33.33
2023-04-16T08:52:52.470Z,41.63
2023-04-16T08:55:25.693Z,46.28
2023-04-16T08:57:57.521Z,45.33
2023-04-16T09:00:24.283Z,41.70
2023-04-16T09:02:51.567Z,43.60
2023-04-16T09:05:20.625Z,47.22
2023-04-16T09:07:49.123Z,37.33
2023-04-16T09:10:16.489Z,43.88
2023-04-16T09:12:46.266Z,30.55
2023-04-16T09:15:14.094Z,45.60
2023-04-16T09:17:40.855Z,41.15
2023-04-16T09:20:08.958Z,42.42
2023-04-16T09:22:36.251Z,35.70
2023-04-16T09:25:02.839Z,35.58
2023-04-16T09:27:30.825Z,36.78
2023-04-16T09:29:57.325Z,37.30
2023-04-16T09:32:28.029Z,31.35
2023-04-16T09:37:34.151Z,47.67
2023-04-16T09:40:02.190Z,32.63
2023-04-16T09:42:31.740Z,35.33
2023-04-16T09:45:01.397Z,35.95
2023-04-16T09:47:41.411Z,33.72
2023-04-16T09:50:11.924Z,32.72
2023-04-16T09:52:39.200Z,31.25
2023-04-16T09:55:06.418Z,30.27
2023-04-16T09:57:32.927Z,36.50
2023-04-16T10:00:05.672Z,35.97
2023-04-16T10:02:33.147Z,32.38
2023-04-16T10:05:02.023Z,27.48
2023-04-16T10:07:29.724Z,33.50
2023-04-16T10:09:56.977Z,32.92
2023-04-16T10:12:23.419Z,37.42
2023-04-16T10:14:50.371Z,28.75
2023-04-16T10:17:17.589Z,32.13
2023-04-16T10:19:44.425Z,30.83
2023-04-16T10:22:11.419Z,30.45
2023-04-16T10:24:38.729Z,33.92
2023-04-16T10:27:05.325Z,33.45
2023-04-16T10:29:32.875Z,28.77
2023-04-16T10:32:01.113Z,28.08
2023-04-16T10:34:29.042Z,32.60
2023-04-16T10:36:56.037Z,27.00
2023-04-16T10:39:24.595Z,36.70
2023-04-16T10:42:06.197Z,32.80
2023-04-16T10:44:33.327Z,29.73
2023-04-16T10:46:59.820Z,32.40
2023-04-16T10:49:27.138Z,28.25
2023-04-16T10:51:59.582Z,29.05
2023-04-16T10:54:29.789Z,29.80
2023-04-16T10:57:01.266Z,32.75
2023-04-16T10:59:34.965Z,27.98
2023-04-16T11:02:24.157Z,28.50
2023-04-16T11:04:52.330Z,30.08
2023-04-16T11:07:33.306Z,30.35
2023-04-16T11:10:06.817Z,23.88
2023-04-16T11:12:34.336Z,37.75
2023-04-16T11:15:06.308Z,31.33
2023-04-16T11:17:38.010Z,28.95
2023-04-16T11:20:19.928Z,29.15
2023-04-16T11:22:48.510Z,31.63
2023-04-16T11:25:21.113Z,23.63
2023-04-16T11:27:47.556Z,29.65
2023-04-16T11:30:14.179Z,25.08
2023-04-16T11:32:40.710Z,28.40
2023-04-16T11:35:18.592Z,26.80
2023-04-16T11:37:48.260Z,22.55
2023-04-16T11:40:15.046Z,27.10
2023-04-16T11:42:42.575Z,22.35
2023-04-16T11:45:11.329Z,26.90
2023-04-16T11:47:52.158Z,27.73
2023-04-16T11:50:24.507Z,26.15
2023-04-16T11:52:53.146Z,23.08
2023-04-16T11:55:20.596Z,25.23
2023-04-16T11:57:47.363Z,32.25
2023-04-16T12:00:15.046Z,28.52
2023-04-16T12:02:46.065Z,29.55
2023-04-16T12:05:35.582Z,26.35
2023-04-16T12:08:04.031Z,28.40
2023-04-16T12:10:34.819Z,18.35
2023-04-16T12:13:12.691Z,22.73
2023-04-16T12:15:50.000Z,18.05
2023-04-16T12:18:17.987Z,23.52
2023-04-16T12:20:45.032Z,29.35
2023-04-16T12:23:26.172Z,20.15
2023-04-16T12:25:53.785Z,20.00
2023-04-16T12:28:34.209Z,19.02
2023-04-16T12:31:01.555Z,24.45
2023-04-16T12:33:28.397Z,18.67
2023-04-16T12:35:55.042Z,20.30
2023-04-16T12:38:24.051Z,30.67
2023-04-16T12:40:51.697Z,25.27
2023-04-16T12:43:18.294Z,24.20
2023-04-16T12:45:44.809Z,21.00
2023-04-16T12:48:11.514Z,24.38
2023-04-16T12:50:39.588Z,21.02
2023-04-16T12:53:06.229Z,20.98
2023-04-16T12:55:32.659Z,19.67
2023-04-16T12:57:59.084Z,26.40
2023-04-16T13:00:25.599Z,27.48
2023-04-16T13:02:52.218Z,23.70
2023-04-16T13:05:19.286Z,24.02
2023-04-16T13:07:46.168Z,20.52
2023-04-16T13:10:13.059Z,27.35
2023-04-16T13:12:39.656Z,23.77
2023-04-16T13:15:06.671Z,22.95
2023-04-16T13:17:33.108Z,21.30
2023-04-16T13:19:59.615Z,22.38
2023-04-16T13:22:26.103Z,23.08
2023-04-16T13:24:52.848Z,20.88
2023-04-16T13:27:19.294Z,24.35
2023-04-16T13:29:46.171Z,19.60
2023-04-16T13:32:13.944Z,18.50
2023-04-16T13:34:40.634Z,15.77
2023-04-16T13:37:07.169Z,17.27
2023-04-16T13:39:33.795Z,14.93
2023-04-16T13:42:00.322Z,15.82
2023-04-16T13:44:26.762Z,19.13
2023-04-16T13:46:53.272Z,16.48
2023-04-16T13:49:19.790Z,17.05
2023-04-16T13:51:46.185Z,16.80
2023-04-16T13:54:12.984Z,50.90
2023-04-16T13:56:40.775Z,24.05
2023-04-16T13:59:07.996Z,21.65
2023-04-16T14:01:34.665Z,27.15
2023-04-16T14:04:05.981Z,21.45
2023-04-16T14:06:33.822Z,24.65
2023-04-16T14:09:00.349Z,23.13
2023-04-16T14:11:26.834Z,21.23
2023-04-16T14:13:53.306Z,22.98
2023-04-16T14:16:19.741Z,21.58
2023-04-16T14:18:46.162Z,15.70
2023-04-16T14:21:13.272Z,15.13
2023-04-16T14:23:39.710Z,19.38
2023-04-16T14:26:06.196Z,17.98
2023-04-16T14:28:32.822Z,16.17
2023-04-16T14:30:59.196Z,17.17
2023-04-16T14:33:25.666Z,15.63
2023-04-16T14:35:52.360Z,15.02
2023-04-16T14:38:18.896Z,14.57
2023-04-16T14:40:45.507Z,17.38
2023-04-16T14:43:11.903Z,17.15
2023-04-16T14:45:38.394Z,18.13
2023-04-16T14:48:06.324Z,18.08
2023-04-16T14:50:37.765Z,19.08
2023-04-16T14:53:05.114Z,13.77
2023-04-16T14:55:31.926Z,15.93
2023-04-16T14:57:59.617Z,18.63
2023-04-16T15:00:27.321Z,15.35
2023-04-16T15:02:55.019Z,18.48
2023-04-16T15:05:22.093Z,17.30
2023-04-16T15:07:48.663Z,19.92
2023-04-16T15:10:15.498Z,25.60
2023-04-16T15:12:41.911Z,17.92
2023-04-16T15:15:08.982Z,17.27
2023-04-16T15:17:35.692Z,16.67
2023-04-16T15:20:02.601Z,16.92
2023-04-16T15:22:29.136Z,20.17
2023-04-16T15:24:55.562Z,21.60
2023-04-16T15:27:22.032Z,21.25
2023-04-16T15:29:53.222Z,23.05
2023-04-16T15:32:19.814Z,17.08
2023-04-16T15:34:46.592Z,17.42
2023-04-16T15:37:13.158Z,21.52
2023-04-16T15:39:39.543Z,17.92
2023-04-16T15:42:07.453Z,20.90
2023-04-16T15:44:34.742Z,24.52
2023-04-16T15:47:01.259Z,19.83
2023-04-16T15:49:27.727Z,21.25
2023-04-16T15:51:54.502Z,23.50
2023-04-16T15:54:21.424Z,23.92
2023-04-16T15:56:48.029Z,23.27
2023-04-16T15:59:14.584Z,20.52
2023-04-16T16:01:41.101Z,22.60
2023-04-16T16:04:07.973Z,24.67
2023-04-16T16:06:34.892Z,24.30
2023-04-16T16:09:01.757Z,25.60
2023-04-16T16:11:28.349Z,26.75
2023-04-16T16:13:54.928Z,20.80
2023-04-16T16:16:21.872Z,24.20
2023-04-16T16:18:48.669Z,19.65
2023-04-16T16:21:15.292Z,25.52
2023-04-16T16:23:41.967Z,28.25
2023-04-16T16:26:09.169Z,28.77
2023-04-16T16:28:37.767Z,36.80
2023-04-16T16:31:06.025Z,35.55
2023-04-16T16:33:32.964Z,37.58
2023-04-16T16:35:59.379Z,35.45
2023-04-16T16:38:25.960Z,35.42
2023-04-16T16:40:52.496Z,32.05
2023-04-16T16:43:19.055Z,39.80
2023-04-16T16:45:46.458Z,33.25
2023-04-16T16:48:12.930Z,30.23
2023-04-16T16:50:39.388Z,38.97
2023-04-16T16:53:05.918Z,36.53
2023-04-16T16:55:32.340Z,30.45
2023-04-16T16:57:58.826Z,31.90
2023-04-16T17:00:25.471Z,34.90
2023-04-16T17:02:52.279Z,32.33
2023-04-16T17:05:18.949Z,30.92
2023-04-16T17:07:45.809Z,39.35
2023-04-16T17:10:20.251Z,28.35
2023-04-16T17:12:50.485Z,29.30
2023-04-16T17:15:19.691Z,33.92
2023-04-16T17:17:47.846Z,32.95
2023-04-16T17:20:14.258Z,23.73
2023-04-16T17:22:40.785Z,38.40
2023-04-16T17:25:08.174Z,36.58
2023-04-16T17:27:34.778Z,35.38
2023-04-16T17:30:02.097Z,25.88
2023-04-16T17:32:29.748Z,28.73
2023-04-16T17:34:56.530Z,20.77
2023-04-16T17:37:23.259Z,26.55
2023-04-16T17:39:49.811Z,28.38
2023-04-16T17:42:16.426Z,26.48
2023-04-16T17:44:42.927Z,27.08
2023-04-16T17:47:09.352Z,24.52
2023-04-16T17:49:35.924Z,28.15
2023-04-16T17:52:02.335Z,29.38
2023-04-16T17:54:28.764Z,27.17
2023-04-16T17:56:55.218Z,28.42
2023-04-16T17:59:21.771Z,27.42
2023-04-16T18:01:49.539Z,26.77
2023-04-16T18:04:16.571Z,23.05
2023-04-16T18:06:43.311Z,28.42
2023-04-16T18:09:09.750Z,25.33
2023-04-16T18:11:36.223Z,26.90
2023-04-16T18:14:02.649Z,27.83
2023-04-16T18:16:29.128Z,25.73
2023-04-16T18:18:55.543Z,33.60
2023-04-16T18:21:22.113Z,25.13
2023-04-16T18:23:48.539Z,24.88
2023-04-16T18:26:18.657Z,24.13
2023-04-16T18:28:47.496Z,28.35
2023-04-16T18:31:13.978Z,22.50
2023-04-16T18:33:55.396Z,23.85
2023-04-16T18:36:23.560Z,24.85
2023-04-16T18:38:59.980Z,25.30
2023-04-16T18:41:27.962Z,24.65
2023-04-16T18:43:54.521Z,27.38
2023-04-16T18:46:20.986Z,15.98
2023-04-16T18:48:47.426Z,20.75
2023-04-16T18:51:16.154Z,22.70
2023-04-16T18:53:44.316Z,28.10
2023-04-16T18:56:11.093Z,36.15
2023-04-16T18:58:37.896Z,33.35
2023-04-16T19:01:04.819Z,23.77
2023-04-16T19:03:32.105Z,35.60
2023-04-16T19:05:58.796Z,33.95
2023-04-16T19:08:25.310Z,30.67
2023-04-16T19:10:51.847Z,39.63
2023-04-16T19:13:18.502Z,30.67
2023-04-16T19:15:45.423Z,26.33
2023-04-16T19:18:11.891Z,35.47
2023-04-16T19:20:39.068Z,39.08
2023-04-16T19:23:06.047Z,25.83
2023-04-16T19:25:32.715Z,32.53
2023-04-16T19:27:59.238Z,31.88
2023-04-16T19:30:26.436Z,29.08
2023-04-16T19:32:55.149Z,34.67
2023-04-16T19:35:22.503Z,24.10
2023-04-16T19:37:49.018Z,24.73
2023-04-16T19:40:15.449Z,22.23
2023-04-16T19:42:41.914Z,21.60
2023-04-16T19:45:08.640Z,31.05
2023-04-16T19:47:35.561Z,24.70
2023-04-16T19:50:02.124Z,28.77
2023-04-16T19:52:28.669Z,22.17
2023-04-16T19:54:55.123Z,26.35
2023-04-16T19:57:21.577Z,30.75
2023-04-16T19:59:48.040Z,26.92
2023-04-16T20:02:14.553Z,36.70
2023-04-16T20:04:40.959Z,34.50
2023-04-16T20:07:07.342Z,36.08
2023-04-16T20:09:33.736Z,48.88
2023-04-16T20:12:00.735Z,34.95
2023-04-16T20:14:27.245Z,26.23
2023-04-16T20:16:54.216Z,28.95
2023-04-16T20:19:22.041Z,32.17
2023-04-16T20:21:48.548Z,31.50
2023-04-16T20:24:15.345Z,24.17
2023-04-16T20:26:41.923Z,36.65
2023-04-16T20:29:09.998Z,30.80
2023-04-16T20:31:36.770Z,35.05
2023-04-16T20:34:03.772Z,30.38
2023-04-16T20:36:30.385Z,23.52
2023-04-16T20:38:56.905Z,29.60
2023-04-16T20:41:25.072Z,29.45
2023-04-16T20:43:52.777Z,31.58
2023-04-16T20:46:24.283Z,29.20
2023-04-16T20:48:51.407Z,34.63
2023-04-16T20:51:17.880Z,31.13
2023-04-16T20:53:44.398Z,32.90
2023-04-16T20:56:14.620Z,32.38
2023-04-16T20:58:41.676Z,27.90
2023-04-16T21:01:08.185Z,30.98
2023-04-16T21:03:34.859Z,26.60
2023-04-16T21:06:01.818Z,28.35
2023-04-16T21:08:28.287Z,40.90
2023-04-16T21:10:54.780Z,28.42
2023-04-16T21:13:21.756Z,37.58
2023-04-16T21:15:48.291Z,36.13
2023-04-16T21:18:14.910Z,29.15
2023-04-16T21:20:41.352Z,24.25
2023-04-16T21:23:10.261Z,23.25
2023-04-16T21:25:36.856Z,33.20
2023-04-16T21:28:03.286Z,36.50
2023-04-16T21:30:29.690Z,36.47
2023-04-16T21:32:56.135Z,30.63
2023-04-16T21:35:22.725Z,39.63
2023-04-16T21:37:49.110Z,35.20
2023-04-16T21:40:15.819Z,31.95
2023-04-16T21:42:42.397Z,32.85
2023-04-16T21:45:10.119Z,32.70
2023-04-16T21:47:37.261Z,25.27
2023-04-16T21:50:04.136Z,37.72
2023-04-16T21:52:32.730Z,35.28
2023-04-16T21:55:00.127Z,24.23
2023-04-16T21:57:26.590Z,30.85
2023-04-16T21:59:53.023Z,42.63
2023-04-16T22:02:19.549Z,32.45
2023-04-16T22:04:46.124Z,45.15
2023-04-16T22:07:12.610Z,29.67
2023-04-16T22:09:39.125Z,31.75
2023-04-16T22:12:12.002Z,38.97
2023-04-16T22:14:44.003Z,37.70
2023-04-16T22:17:17.104Z,36.60
2023-04-16T22:19:44.559Z,41.95
2023-04-16T22:22:10.988Z,30.00
2023-04-16T22:24:37.430Z,37.35
2023-04-16T22:27:04.183Z,40.42
2023-04-16T22:29:30.650Z,43.40
2023-04-16T22:31:57.322Z,43.13
2023-04-16T22:34:23.742Z,43.38
2023-04-16T22:36:50.242Z,38.95
2023-04-16T22:39:16.665Z,32.90
2023-04-16T22:41:43.051Z,40.75
2023-04-16T22:44:09.987Z,38.88
2023-04-16T22:46:36.986Z,38.45
2023-04-16T22:49:03.403Z,40.58
2023-04-16T22:51:30.544Z,51.75
2023-04-16T22:53:56.949Z,39.65
2023-04-16T22:56:28.496Z,48.00
2023-04-16T22:58:54.929Z,38.30
2023-04-16T23:01:21.574Z,33.20
2023-04-16T23:03:48.186Z,44.28
2023-04-16T23:06:14.670Z,39.90
2023-04-16T23:08:41.099Z,48.53
2023-04-16T23:11:07.607Z,39.10
2023-04-16T23:13:34.065Z,47.13
2023-04-16T23:16:00.589Z,36.33
2023-04-16T23:18:27.082Z,50.90
2023-04-16T23:20:53.643Z,40.97
2023-04-16T23:23:20.168Z,48.22
2023-04-16T23:25:46.653Z,38.50
2023-04-16T23:28:13.118Z,38.10
2023-04-16T23:30:39.575Z,44.20
2023-04-16T23:33:06.070Z,35.40
2023-04-16T23:35:32.520Z,39.35
2023-04-16T23:37:58.977Z,57.22
2023-04-16T23:40:25.656Z,42.55
2023-04-16T23:42:52.115Z,43.40
2023-04-16T23:45:18.572Z,38.55
2023-04-16T23:47:45.162Z,31.67
2023-04-16T23:50:11.770Z,39.38
2023-04-16T23:52:38.178Z,32.15
2023-04-16T23:55:05.156Z,29.13
2023-04-16T23:57:31.568Z,29.27
2023-04-16T23:59:57.945Z,31.42
